Terminal Aerodrome Forecast
Issued by NWS Sterling, VA

Current Version | Previous Version | Graphics & Text | Print | Product List | Glossary On
Versions: 1 2 3 4 5 6 7 8 9 10 11 12 13 14 15 16 17 18 19 20 21
000
FTUS41 KLWX 160534
TAFDCA
TAF
KDCA 160534Z 1606/1706 28009KT P6SM SCT050 OVC080
     FM160700 30010G19KT P6SM -SHRA BKN025 OVC050
     FM160900 32010G18KT P6SM -SHRA OVC040
     FM161200 33011G19KT P6SM BKN045
     FM161700 33013G23KT P6SM SCT050
     FM162300 34011KT P6SM FEW250=

USA.gov is the U.S. government's official web portal to all federal, state and local government web resources and services.